Time;durP1;ratioP1;P1;durP2;ratioP2;P2;SDS_P1;SDS_P2;PMS_P1;PMS_P2;Temp;Humidity;BMP_temperature;BMP_pressure;BME280_temperature;BME280_humidity;BME280_pressure;Samples;Min_cycle;Max_cycle;Signal;HPM_P1;HPM_P2
2021/11/13 00:00:34;;;;;;;31.20;6.72;;;12.30;91.40;;;;;;5080558;28;20025;-78
2021/11/13 00:03:00;;;;;;;41.28;8.13;;;12.20;91.60;;;;;;5080645;28;20025;-78
2021/11/13 00:05:26;;;;;;;37.35;7.30;;;12.20;91.50;;;;;;5080432;28;20023;-78
2021/11/13 00:07:53;;;;;;;36.22;7.18;;;12.20;91.70;;;;;;5080457;28;20112;-78
2021/11/13 00:10:26;;;;;;;36.22;7.15;;;12.20;91.90;;;;;;5079978;28;20016;-78
2021/11/13 00:12:57;;;;;;;38.20;8.18;;;12.20;92.00;;;;;;5080406;28;20031;-78
2021/11/13 00:15:23;;;;;;;36.22;7.80;;;12.20;91.80;;;;;;5080334;28;20047;-78
2021/11/13 00:17:50;;;;;;;33.65;7.20;;;12.20;91.70;;;;;;5080330;28;20033;-78
2021/11/13 00:20:17;;;;;;;32.95;7.85;;;12.20;91.60;;;;;;5080601;28;20025;-78
2021/11/13 00:22:43;;;;;;;27.10;5.78;;;12.20;91.60;;;;;;5080152;28;20025;-78
2021/11/13 00:25:09;;;;;;;28.02;7.65;;;12.20;91.50;;;;;;5079945;28;20472;-78
2021/11/13 00:27:36;;;;;;;22.25;7.93;;;12.10;91.40;;;;;;5079975;28;20028;-78
2021/11/13 00:30:03;;;;;;;37.28;7.18;;;12.10;91.60;;;;;;5078818;28;20025;-78
2021/11/13 00:32:29;;;;;;;45.55;7.05;;;12.10;91.50;;;;;;5079877;28;20049;-78
2021/11/13 00:34:55;;;;;;;35.28;7.05;;;12.10;91.70;;;;;;5078713;28;20021;-79
2021/11/13 00:37:21;;;;;;;33.83;7.50;;;12.00;91.50;;;;;;5079713;28;20060;-78
2021/11/13 00:39:46;;;;;;;35.47;6.68;;;12.00;91.80;;;;;;5079737;28;20048;-78
2021/11/13 00:42:12;;;;;;;40.92;7.00;;;12.00;91.80;;;;;;5079740;28;20056;-78
2021/11/13 00:44:38;;;;;;;32.72;7.35;;;12.00;92.00;;;;;;5080250;28;20392;-78
2021/11/13 00:47:04;;;;;;;36.25;7.05;;;12.00;92.00;;;;;;5079592;28;20028;-78
2021/11/13 00:49:30;;;;;;;42.80;7.70;;;12.00;92.00;;;;;;5080027;28;20024;-79
2021/11/13 00:51:56;;;;;;;33.08;7.63;;;11.90;92.00;;;;;;5079553;28;20020;-78
2021/11/13 00:54:22;;;;;;;34.03;7.35;;;11.90;92.00;;;;;;5079631;28;20104;-78
2021/11/13 00:56:48;;;;;;;44.65;8.68;;;11.80;92.10;;;;;;5078402;28;20029;-79
2021/11/13 00:59:15;;;;;;;33.97;6.97;;;11.70;92.20;;;;;;5079737;28;20142;-78
2021/11/13 01:01:41;;;;;;;27.10;7.22;;;11.70;92.10;;;;;;5079488;28;20035;-79
2021/11/13 01:04:07;;;;;;;41.38;8.15;;;11.60;91.90;;;;;;5079533;28;20025;-79
2021/11/13 01:06:33;;;;;;;29.67;7.60;;;11.60;92.20;;;;;;5078092;28;20116;-78
2021/11/13 01:08:59;;;;;;;40.95;7.25;;;11.50;92.00;;;;;;5079135;28;20060;-78
2021/11/13 01:11:27;;;;;;;34.53;7.00;;;11.50;92.10;;;;;;5079239;28;20498;-79
2021/11/13 01:13:54;;;;;;;35.80;7.72;;;11.40;92.20;;;;;;5078264;28;20028;-78
2021/11/13 01:16:20;;;;;;;32.80;7.35;;;11.40;92.80;;;;;;5079288;28;20021;-78
2021/11/13 01:18:47;;;;;;;32.70;7.72;;;11.40;92.60;;;;;;5079472;28;20541;-79
2021/11/13 01:21:13;;;;;;;54.70;9.63;;;11.30;92.60;;;;;;5079221;28;20380;-78
2021/11/13 01:23:39;;;;;;;44.10;7.72;;;11.30;93.00;;;;;;5078804;28;20056;-79
2021/11/13 01:26:06;;;;;;;41.13;7.55;;;11.30;93.10;;;;;;5077697;28;20017;-78
2021/11/13 01:28:32;;;;;;;43.25;8.15;;;11.30;93.60;;;;;;5077679;28;20032;-78
2021/11/13 01:30:58;;;;;;;30.60;8.15;;;11.30;93.40;;;;;;5079013;28;20024;-79
2021/11/13 01:33:24;;;;;;;30.25;7.13;;;11.30;93.50;;;;;;5078834;28;20031;-79
2021/11/13 01:35:50;;;;;;;40.53;7.75;;;11.30;93.30;;;;;;5078618;28;20020;-79
2021/11/13 01:38:17;;;;;;;38.95;7.88;;;11.20;93.20;;;;;;5078782;28;20028;-78
2021/11/13 01:40:43;;;;;;;36.33;6.38;;;11.20;93.00;;;;;;5078686;28;20021;-78
2021/11/13 01:43:09;;;;;;;35.75;7.53;;;11.20;92.90;;;;;;5077421;28;20032;-78
2021/11/13 01:45:36;;;;;;;30.15;7.97;;;11.20;92.90;;;;;;5078580;28;20025;-78
2021/11/13 01:48:02;;;;;;;35.67;7.45;;;11.20;93.10;;;;;;5078635;28;20020;-79
2021/11/13 01:50:34;;;;;;;42.22;7.22;;;11.20;93.30;;;;;;5078462;28;20104;-78
2021/11/13 01:53:00;;;;;;;;;;;11.20;93.60;;;;;;5094522;28;20502;-78
2021/11/13 01:55:28;;;;;;;32.38;6.07;;;11.20;93.50;;;;;;5078081;28;19904;-78
2021/11/13 01:57:56;;;;;;;52.38;8.18;;;11.20;93.50;;;;;;5077187;28;20024;-78
2021/11/13 02:00:28;;;;;;;40.38;7.47;;;11.20;93.70;;;;;;5077219;28;20039;-78
2021/11/13 02:02:54;;;;;;;34.30;6.30;;;11.20;93.90;;;;;;5078333;28;20021;-78
2021/11/13 02:05:20;;;;;;;35.22;6.97;;;11.20;94.00;;;;;;5078183;28;20478;-78
2021/11/13 02:07:46;;;;;;;43.47;7.28;;;11.20;94.20;;;;;;5078073;28;20028;-76
2021/11/13 02:10:13;;;;;;;36.00;7.60;;;11.20;94.30;;;;;;5077627;28;20115;-78
2021/11/13 02:12:40;;;;;;;25.65;6.60;;;11.20;94.30;;;;;;5078117;28;20021;-78
2021/11/13 02:15:07;;;;;;;37.85;8.32;;;11.20;94.10;;;;;;5077973;28;20081;-78
2021/11/13 02:17:33;;;;;;;32.25;7.18;;;11.20;94.20;;;;;;5078168;28;20535;-79
2021/11/13 02:20:26;;;;;;;33.13;7.03;;;11.10;94.20;;;;;;5076621;28;20044;-78
2021/11/13 02:22:55;;;;;;;34.13;7.03;;;11.00;94.20;;;;;;5077903;28;20518;-78
2021/11/13 02:25:24;;;;;;;31.48;6.95;;;11.00;94.30;;;;;;5077686;28;20035;-78
2021/11/13 02:27:51;;;;;;;32.10;6.40;;;11.00;94.30;;;;;;5077655;28;20090;-78
2021/11/13 02:30:18;;;;;;;36.50;6.70;;;10.90;94.40;;;;;;5077860;28;20016;-78
2021/11/13 02:32:44;;;;;;;29.10;6.05;;;10.90;94.50;;;;;;5077647;28;20035;-78
2021/11/13 02:35:13;;;;;;;39.45;6.85;;;10.90;94.60;;;;;;5077763;28;20020;-78
2021/11/13 02:37:41;;;;;;;28.00;6.53;;;10.90;94.70;;;;;;5077599;28;20411;-78
2021/11/13 02:40:08;;;;;;;28.35;6.63;;;10.90;94.90;;;;;;5077368;28;20031;-78
2021/11/13 02:42:35;;;;;;;33.63;6.53;;;10.90;95.20;;;;;;5077941;28;20095;-78
2021/11/13 02:45:05;;;;;;;28.77;8.07;;;11.00;95.30;;;;;;5077718;28;20029;-78
2021/11/13 02:47:32;;;;;;;26.70;5.53;;;11.00;95.30;;;;;;5077509;28;20031;-78
2021/11/13 02:49:57;;;;;;;27.05;5.65;;;10.90;95.00;;;;;;5077629;28;20044;-78
2021/11/13 02:52:23;;;;;;;28.38;5.90;;;10.90;94.80;;;;;;5077409;28;20062;-78
2021/11/13 02:54:52;;;;;;;31.05;6.70;;;10.90;95.10;;;;;;5077160;28;20043;-78
2021/11/13 02:57:18;;;;;;;25.92;5.55;;;10.90;94.90;;;;;;5076125;28;20029;-78
2021/11/13 02:59:48;;;;;;;27.50;6.43;;;10.90;94.80;;;;;;5077518;28;20475;-78
2021/11/13 03:02:14;;;;;;;26.88;6.63;;;10.90;94.90;;;;;;5077408;28;20076;-78
2021/11/13 03:04:41;;;;;;;24.83;5.45;;;10.90;94.80;;;;;;5077463;28;20082;-78
2021/11/13 03:07:08;;;;;;;27.20;5.90;;;10.80;94.80;;;;;;5075938;28;20048;-78
2021/11/13 03:09:35;;;;;;;24.55;6.07;;;10.80;94.60;;;;;;5077131;28;20092;-78
2021/11/13 03:12:02;;;;;;;27.92;6.05;;;10.70;94.60;;;;;;5077153;28;20025;-78
2021/11/13 03:14:28;;;;;;;22.13;5.70;;;10.70;94.70;;;;;;5077351;28;20028;-78
2021/11/13 03:17:00;;;;;;;30.50;6.22;;;10.70;94.70;;;;;;5077225;28;20040;-79
2021/11/13 03:19:26;;;;;;;25.13;6.10;;;10.70;94.70;;;;;;5077404;28;20029;-78
2021/11/13 03:21:52;;;;;;;17.75;4.88;;;10.70;95.00;;;;;;5080846;28;20483;-78
2021/11/13 03:24:18;;;;;;;21.35;5.97;;;10.70;95.00;;;;;;5079641;28;20078;-78
2021/11/13 03:26:45;;;;;;;27.00;5.75;;;10.80;95.10;;;;;;5081242;28;20035;-78
2021/11/13 03:29:27;;;;;;;22.45;4.72;;;10.80;95.10;;;;;;5081308;28;20024;-78
2021/11/13 03:31:55;;;;;;;28.27;5.78;;;10.80;95.10;;;;;;5081270;28;20048;-78
2021/11/13 03:34:20;;;;;;;23.13;4.88;;;10.80;94.90;;;;;;5079728;28;20479;-78
2021/11/13 03:36:46;;;;;;;21.73;4.10;;;10.80;94.90;;;;;;5081244;28;20127;-78
2021/11/13 03:39:12;;;;;;;16.73;5.20;;;10.80;95.00;;;;;;5080656;28;20027;-78
2021/11/13 03:41:38;;;;;;;17.30;3.85;;;10.80;94.90;;;;;;5081271;28;20024;-78
2021/11/13 03:44:04;;;;;;;21.98;4.50;;;10.80;94.90;;;;;;5080785;28;20032;-78
2021/11/13 03:46:30;;;;;;;20.38;3.72;;;10.80;95.00;;;;;;5081037;28;20028;-78
2021/11/13 03:48:56;;;;;;;23.50;4.68;;;10.80;95.10;;;;;;5081128;28;20438;-78
2021/11/13 03:51:22;;;;;;;19.58;4.00;;;10.90;95.40;;;;;;5080722;28;20019;-78
2021/11/13 03:53:49;;;;;;;21.05;4.07;;;11.00;95.40;;;;;;5080550;28;20056;-78
2021/11/13 03:56:15;;;;;;;13.27;3.60;;;11.00;95.40;;;;;;5080817;28;20024;-78
2021/11/13 03:58:41;;;;;;;19.45;3.97;;;11.00;95.60;;;;;;5080590;28;20032;-78
2021/11/13 04:01:07;;;;;;;23.25;4.00;;;11.00;95.60;;;;;;5081029;28;20059;-78
2021/11/13 04:03:33;;;;;;;22.60;4.05;;;11.00;95.50;;;;;;5080610;28;20052;-78
2021/11/13 04:05:59;;;;;;;18.65;3.45;;;11.00;95.70;;;;;;5080839;28;20091;-78
2021/11/13 04:08:25;;;;;;;16.55;2.97;;;11.10;95.90;;;;;;5080151;28;20037;-78
2021/11/13 04:10:51;;;;;;;17.05;3.35;;;11.10;95.90;;;;;;5080507;28;20013;-78
2021/11/13 04:13:17;;;;;;;13.98;2.83;;;11.00;95.70;;;;;;5080421;28;20395;-78
2021/11/13 04:15:43;;;;;;;20.30;3.13;;;11.00;95.70;;;;;;5080697;28;20021;-78
2021/11/13 04:18:09;;;;;;;14.00;3.42;;;11.00;95.60;;;;;;5080459;28;20029;-78
2021/11/13 04:20:35;;;;;;;16.88;2.88;;;10.90;95.60;;;;;;5079038;28;20057;-78
2021/11/13 04:23:01;;;;;;;17.75;3.88;;;10.90;95.80;;;;;;5080019;28;20032;-78
2021/11/13 04:25:27;;;;;;;19.75;2.90;;;10.90;96.00;;;;;;5080059;28;20396;-78
2021/11/13 04:27:54;;;;;;;14.88;2.22;;;10.90;95.80;;;;;;5080013;28;20025;-78
2021/11/13 04:30:20;;;;;;;10.15;3.45;;;10.90;95.80;;;;;;5080402;28;20482;-78
2021/11/13 04:32:49;;;;;;;14.05;2.78;;;10.80;95.80;;;;;;5079815;28;20154;-78
2021/11/13 04:37:56;;;;;;;12.43;3.00;;;10.90;95.90;;;;;;5079867;28;20137;-78
2021/11/13 04:40:29;;;;;;;11.07;3.00;;;10.90;95.90;;;;;;5079656;28;20027;-78
2021/11/13 04:42:55;;;;;;;11.15;2.58;;;10.90;96.10;;;;;;5078492;28;20060;-78
2021/11/13 04:45:23;;;;;;;16.80;3.08;;;11.00;96.10;;;;;;5079957;28;20079;-78
2021/11/13 04:47:49;;;;;;;11.90;2.25;;;11.00;96.20;;;;;;5079903;28;20487;-78
2021/11/13 04:50:19;;;;;;;14.82;2.67;;;10.90;96.20;;;;;;5079730;28;20502;-78
2021/11/13 04:52:46;;;;;;;9.70;2.72;;;10.90;96.30;;;;;;5067235;28;20469;-78
2021/11/13 04:55:13;;;;;;;18.17;2.55;;;11.00;96.60;;;;;;5077962;28;20020;-78
2021/11/13 04:57:39;;;;;;;17.10;2.88;;;11.00;96.60;;;;;;5079717;28;20052;-78
2021/11/13 05:00:09;;;;;;;13.43;2.75;;;11.00;96.60;;;;;;5079546;28;20036;-78
2021/11/13 05:02:35;;;;;;;12.77;2.45;;;11.00;96.60;;;;;;5078241;28;20403;-78
2021/11/13 05:05:02;;;;;;;12.95;2.30;;;11.00;96.50;;;;;;5079538;28;20020;-78
2021/11/13 05:07:28;;;;;;;11.25;2.10;;;11.00;96.60;;;;;;5079470;28;20056;-78
2021/11/13 05:09:54;;;;;;;14.68;2.90;;;11.00;96.60;;;;;;5078898;28;20050;-78
2021/11/13 05:12:22;;;;;;;10.57;2.80;;;11.00;96.60;;;;;;5079466;28;20487;-78
2021/11/13 05:14:48;;;;;;;11.27;2.40;;;11.10;96.50;;;;;;5079263;28;20505;-78
2021/11/13 05:17:13;;;;;;;14.77;3.13;;;11.10;96.50;;;;;;5079532;28;20092;-78
2021/11/13 05:19:40;;;;;;;12.50;2.85;;;11.10;96.50;;;;;;5079137;28;20024;-78
2021/11/13 05:22:07;;;;;;;14.07;2.20;;;11.10;96.70;;;;;;5079314;28;20095;-78
2021/11/13 05:24:33;;;;;;;7.70;2.33;;;11.10;96.70;;;;;;5078641;28;20024;-78
2021/11/13 05:27:00;;;;;;;9.10;2.50;;;11.20;96.70;;;;;;5079233;28;20020;-78
2021/11/13 05:29:26;;;;;;;10.27;2.08;;;11.20;96.70;;;;;;5077578;28;20044;-78
2021/11/13 05:31:51;;;;;;;9.70;1.73;;;11.10;96.60;;;;;;5079036;28;20368;-78
2021/11/13 05:34:17;;;;;;;14.15;2.38;;;11.20;96.50;;;;;;5078738;28;20124;-78
2021/11/13 05:36:45;;;;;;;12.30;2.50;;;11.20;96.70;;;;;;5078847;28;20124;-78
2021/11/13 05:39:10;;;;;;;8.13;1.80;;;11.20;96.70;;;;;;5078403;28;20035;-78
2021/11/13 05:41:36;;;;;;;10.25;2.70;;;11.20;96.60;;;;;;5077490;28;20048;-78
2021/11/13 05:44:02;;;;;;;9.80;2.47;;;11.20;96.70;;;;;;5077980;28;20399;-78
2021/11/13 05:46:28;;;;;;;13.90;2.95;;;11.20;96.80;;;;;;5078737;28;20066;-78
2021/11/13 05:48:54;;;;;;;10.27;2.40;;;11.20;96.90;;;;;;5078435;28;20028;-78
2021/11/13 05:51:20;;;;;;;12.27;2.85;;;11.20;96.80;;;;;;5077198;28;20029;-78
2021/11/13 05:53:46;;;;;;;8.65;2.15;;;11.20;97.00;;;;;;5078268;28;20487;-78
2021/11/13 05:56:12;;;;;;;11.70;2.85;;;11.20;96.90;;;;;;5078701;28;20435;-78
2021/11/13 05:58:38;;;;;;;10.30;2.42;;;11.20;96.80;;;;;;5078535;28;20040;-78
2021/11/13 06:01:03;;;;;;;10.02;2.13;;;11.20;96.80;;;;;;5078685;28;20376;-78
2021/11/13 06:03:29;;;;;;;6.97;2.15;;;11.20;96.70;;;;;;5078281;28;20437;-78
2021/11/13 06:05:55;;;;;;;17.85;2.70;;;11.30;96.80;;;;;;5078320;28;20066;-78
2021/11/13 06:08:21;;;;;;;13.85;2.80;;;11.30;96.90;;;;;;5076551;28;20160;-78
2021/11/13 06:10:47;;;;;;;10.27;2.55;;;11.30;96.80;;;;;;5078079;28;20506;-78
2021/11/13 06:13:12;;;;;;;8.23;2.03;;;11.20;96.70;;;;;;5078171;28;20111;-78
2021/11/13 06:15:38;;;;;;;7.40;2.55;;;11.30;96.80;;;;;;5078203;28;20069;-78
2021/11/13 06:18:04;;;;;;;8.55;2.38;;;11.30;96.80;;;;;;5078164;28;20125;-78
2021/11/13 06:20:30;;;;;;;9.93;2.67;;;11.30;96.50;;;;;;5077192;28;20107;-78
2021/11/13 06:22:57;;;;;;;7.70;2.10;;;11.20;96.40;;;;;;5077797;28;20024;-78
2021/11/13 06:25:23;;;;;;;7.50;2.30;;;11.30;96.40;;;;;;5077788;28;20550;-78
2021/11/13 06:27:49;;;;;;;11.05;2.67;;;11.30;96.40;;;;;;5077930;28;20064;-78
2021/11/13 06:30:16;;;;;;;11.07;2.65;;;11.30;96.40;;;;;;5077936;28;20016;-78
2021/11/13 06:32:44;;;;;;;11.40;2.92;;;11.30;96.60;;;;;;5077703;28;20020;-78
2021/11/13 06:35:11;;;;;;;10.32;2.80;;;11.30;96.80;;;;;;5076579;28;20086;-78
2021/11/13 06:37:37;;;;;;;13.75;3.97;;;11.30;97.00;;;;;;5077756;28;20067;-78
2021/11/13 06:40:05;;;;;;;11.98;2.92;;;11.40;97.20;;;;;;5077446;28;20082;-78
2021/11/13 06:42:31;;;;;;;9.13;2.63;;;11.40;97.30;;;;;;5076258;28;20081;-78
2021/11/13 06:44:57;;;;;;;9.75;2.90;;;11.40;97.30;;;;;;5077743;28;20103;-78
2021/11/13 06:47:23;;;;;;;10.13;2.63;;;11.40;97.40;;;;;;5077553;28;20029;-78
2021/11/13 06:49:49;;;;;;;8.75;2.28;;;11.30;97.30;;;;;;5077571;28;20020;-78
2021/11/13 06:52:15;;;;;;;12.35;2.58;;;11.30;97.20;;;;;;5092996;28;20020;-78
2021/11/13 06:54:40;;;;;;;7.35;2.72;;;11.30;97.20;;;;;;5076517;28;20479;-78
2021/11/13 06:57:06;;;;;;;15.43;3.67;;;11.40;97.40;;;;;;5077599;28;20031;-78
2021/11/13 06:59:33;;;;;;;8.35;2.47;;;11.30;97.20;;;;;;5077643;28;20031;-78
2021/11/13 07:01:59;;;;;;;10.88;2.60;;;11.30;97.30;;;;;;5077315;28;20021;-78
2021/11/13 07:04:26;;;;;;;9.85;2.42;;;11.40;97.40;;;;;;5077630;28;20025;-78
2021/11/13 07:06:51;;;;;;;8.00;2.72;;;11.30;97.10;;;;;;5077311;28;20043;-78
2021/11/13 07:09:18;;;;;;;8.85;2.17;;;11.30;97.10;;;;;;5077200;28;20028;-78
2021/11/13 07:11:43;;;;;;;7.60;2.60;;;11.30;97.20;;;;;;5077243;28;20036;-78
2021/11/13 07:14:09;;;;;;;11.23;3.83;;;11.30;97.30;;;;;;5077394;28;20024;-78
2021/11/13 07:16:35;;;;;;;9.98;3.45;;;11.30;97.30;;;;;;5077227;28;20017;-78
2021/11/13 07:19:01;;;;;;;6.38;2.60;;;11.40;97.40;;;;;;5076007;28;20039;-78
2021/11/13 07:21:27;;;;;;;11.18;3.20;;;11.30;97.40;;;;;;5077161;28;20078;-78
2021/11/13 07:23:54;;;;;;;9.48;3.05;;;11.40;97.60;;;;;;5075633;28;20020;-78
2021/11/13 07:26:21;;;;;;;9.18;2.75;;;11.40;97.70;;;;;;5077167;28;20032;-78
2021/11/13 07:28:49;;;;;;;7.60;2.92;;;11.40;97.50;;;;;;5075887;28;20555;-78
2021/11/13 07:31:16;;;;;;;10.48;2.95;;;11.40;97.60;;;;;;5077096;28;20020;-78
2021/11/13 07:33:45;;;;;;;9.65;2.85;;;11.40;97.80;;;;;;5077020;28;20028;-78
2021/11/13 07:36:12;;;;;;;11.13;3.00;;;11.40;97.70;;;;;;5075579;28;20123;-78
2021/11/13 07:38:41;;;;;;;7.35;2.60;;;11.40;97.60;;;;;;5077186;28;20028;-78
2021/11/13 07:41:09;;;;;;;11.77;3.42;;;11.40;97.70;;;;;;5076968;28;20399;-78
2021/11/13 07:43:35;;;;;;;11.85;3.30;;;11.40;97.60;;;;;;5077165;28;20078;-78
2021/11/13 07:46:01;;;;;;;11.65;3.25;;;11.40;97.60;;;;;;5077143;28;20029;-78
2021/11/13 07:48:27;;;;;;;9.57;3.40;;;11.40;97.60;;;;;;5077178;28;20056;-78
2021/11/13 07:50:53;;;;;;;12.13;3.17;;;11.50;97.60;;;;;;5076862;28;20024;-78
2021/11/13 07:53:19;;;;;;;11.85;3.35;;;11.40;97.60;;;;;;5076979;28;20386;-78
2021/11/13 07:55:45;;;;;;;6.88;2.70;;;11.50;97.60;;;;;;5076643;28;20056;-78
2021/11/13 07:58:15;;;;;;;8.13;3.80;;;11.50;97.40;;;;;;5077177;28;20024;-78
2021/11/13 08:00:42;;;;;;;13.30;4.50;;;11.50;97.50;;;;;;5076880;28;20021;-78
2021/11/13 08:03:08;;;;;;;8.45;3.75;;;11.50;97.40;;;;;;5076889;28;20027;-78
2021/11/13 08:05:34;;;;;;;9.23;3.83;;;11.50;97.40;;;;;;5076756;28;20403;-78
2021/11/13 08:08:00;;;;;;;10.55;3.25;;;11.50;97.30;;;;;;5079916;28;20583;-78
2021/11/13 08:10:26;;;;;;;12.32;4.78;;;11.60;97.60;;;;;;5080315;28;20459;-78
2021/11/13 08:12:51;;;;;;;14.77;5.70;;;11.60;97.70;;;;;;5079179;28;20013;-78
2021/11/13 08:15:19;;;;;;;11.57;6.10;;;11.50;97.60;;;;;;5080271;28;20021;-78
2021/11/13 08:17:45;;;;;;;10.13;4.30;;;11.50;97.40;;;;;;5080405;28;20025;-78
2021/11/13 08:20:13;;;;;;;10.18;3.85;;;11.60;97.50;;;;;;5080380;28;20218;-78
2021/11/13 08:22:41;;;;;;;14.68;3.58;;;11.50;97.30;;;;;;5080248;28;20028;-78
2021/11/13 08:25:09;;;;;;;6.38;2.92;;;11.60;97.50;;;;;;5079971;28;20028;-78
2021/11/13 08:27:36;;;;;;;14.32;3.88;;;11.60;97.50;;;;;;5078730;28;20094;-78
2021/11/13 08:30:03;;;;;;;7.57;3.42;;;11.60;97.50;;;;;;5080218;28;20017;-78
2021/11/13 08:32:29;;;;;;;10.23;3.63;;;11.60;97.60;;;;;;5079969;28;20028;-78
2021/11/13 08:34:55;;;;;;;11.02;3.90;;;11.60;97.60;;;;;;5080426;28;20028;-78
2021/11/13 08:37:21;;;;;;;12.13;5.07;;;11.70;97.70;;;;;;5079807;28;20131;-78
2021/11/13 08:39:47;;;;;;;13.85;5.07;;;11.70;98.00;;;;;;5079797;28;20020;-78
2021/11/13 08:42:14;;;;;;;10.65;4.90;;;11.70;98.00;;;;;;5079834;28;20021;-78
2021/11/13 08:44:45;;;;;;;13.23;6.30;;;11.80;98.00;;;;;;5080121;28;20017;-78
2021/11/13 08:47:13;;;;;;;14.20;5.90;;;11.80;98.10;;;;;;5079693;28;20055;-78
2021/11/13 08:49:41;;;;;;;15.30;5.97;;;11.80;98.00;;;;;;5080033;28;20063;-78
2021/11/13 08:52:09;;;;;;;12.45;5.43;;;11.80;98.00;;;;;;5079516;28;20423;-78
2021/11/13 08:54:35;;;;;;;10.68;4.70;;;11.80;98.10;;;;;;5079634;28;20017;-78
2021/11/13 08:57:05;;;;;;;10.70;4.72;;;11.90;98.20;;;;;;5061696;28;20025;-78
2021/11/13 08:59:32;;;;;;;11.07;4.50;;;12.00;98.20;;;;;;5079845;28;20024;-78
2021/11/13 09:02:03;;;;;;;8.77;4.55;;;12.00;98.00;;;;;;5079798;28;20061;-78
2021/11/13 09:04:29;;;;;;;8.95;4.32;;;12.10;98.00;;;;;;5079747;28;20056;-78
2021/11/13 09:06:55;;;;;;;10.27;4.90;;;12.10;97.80;;;;;;5079551;28;20024;-78
2021/11/13 09:09:21;;;;;;;9.93;5.55;;;12.30;97.80;;;;;;5079107;28;20534;-78
2021/11/13 09:11:47;;;;;;;9.10;5.43;;;12.40;97.80;;;;;;5079317;28;20017;-78
2021/11/13 09:14:16;;;;;;;8.20;4.40;;;12.40;97.60;;;;;;5079476;28;20080;-78
2021/11/13 09:16:41;;;;;;;11.70;4.95;;;12.60;97.40;;;;;;5079193;28;20471;-78
2021/11/13 09:19:08;;;;;;;9.15;4.35;;;12.70;97.10;;;;;;5078489;28;20079;-78
2021/11/13 09:21:34;;;;;;;7.05;4.30;;;12.70;96.80;;;;;;5079116;28;20024;-78
2021/11/13 09:24:02;;;;;;;10.00;4.65;;;12.70;96.70;;;;;;5078822;28;20032;-78
2021/11/13 09:26:28;;;;;;;8.98;5.10;;;12.80;96.60;;;;;;5079102;28;20032;-78
2021/11/13 09:28:56;;;;;;;8.60;4.00;;;12.80;96.50;;;;;;5079093;28;20029;-78
2021/11/13 09:31:22;;;;;;;9.30;3.95;;;12.90;96.50;;;;;;5077601;28;20548;-76
2021/11/13 09:33:48;;;;;;;7.80;3.60;;;13.00;96.40;;;;;;5078941;28;20028;-76
2021/11/13 09:36:14;;;;;;;6.88;3.60;;;13.00;96.10;;;;;;5078871;28;20040;-76
2021/11/13 09:38:43;;;;;;;8.63;3.95;;;13.10;95.90;;;;;;5078590;28;20048;-76
2021/11/13 09:41:10;;;;;;;8.38;3.42;;;13.10;95.70;;;;;;5078615;28;20036;-76
2021/11/13 09:43:40;;;;;;;9.88;4.30;;;13.10;95.70;;;;;;5078805;28;20491;-76
2021/11/13 09:46:08;;;;;;;8.23;4.22;;;13.20;95.60;;;;;;5078843;28;20048;-76
2021/11/13 09:48:35;;;;;;;8.30;3.47;;;13.20;95.50;;;;;;5078776;28;20036;-76
2021/11/13 09:51:02;;;;;;;7.50;3.72;;;13.20;95.30;;;;;;5078292;28;20013;-76
2021/11/13 09:53:30;;;;;;;7.65;3.90;;;13.20;95.20;;;;;;5078390;28;20020;-76
2021/11/13 09:55:58;;;;;;;9.13;4.28;;;13.10;95.10;;;;;;5078555;28;20025;-76
2021/11/13 09:58:25;;;;;;;8.10;4.63;;;13.10;95.10;;;;;;5078480;28;20028;-76
2021/11/13 10:00:51;;;;;;;10.75;5.85;;;13.10;95.00;;;;;;5078573;28;20352;-76
2021/11/13 10:03:20;;;;;;;11.05;5.60;;;13.10;95.00;;;;;;5078320;28;20058;-76
2021/11/13 10:05:57;;;;;;;9.52;5.63;;;13.10;95.10;;;;;;5078525;28;20030;-76
2021/11/13 10:08:23;;;;;;;6.55;3.53;;;13.10;95.20;;;;;;5078175;28;20060;-76
2021/11/13 10:10:57;;;;;;;5.53;2.67;;;13.20;95.50;;;;;;5078179;28;20028;-76
2021/11/13 10:13:32;;;;;;;9.68;3.00;;;13.30;95.40;;;;;;5076777;28;20055;-76
2021/11/13 10:16:14;;;;;;;8.68;2.70;;;13.40;95.30;;;;;;5078427;28;20020;-76
2021/11/13 10:18:44;;;;;;;5.97;1.98;;;13.60;95.20;;;;;;5078186;28;20078;-76
2021/11/13 10:21:18;;;;;;;4.68;1.90;;;13.70;94.80;;;;;;5077944;28;20032;-76
2021/11/13 10:23:44;;;;;;;8.30;2.28;;;13.80;94.60;;;;;;5077749;28;20017;-76
2021/11/13 10:26:24;;;;;;;9.73;2.08;;;13.90;94.70;;;;;;5077966;28;20392;-76
2021/11/13 10:29:00;;;;;;;3.72;1.40;;;14.20;94.20;;;;;;5078089;28;20020;-76
2021/11/13 10:31:37;;;;;;;5.35;1.90;;;14.30;93.60;;;;;;5078181;28;20104;-76
2021/11/13 10:34:27;;;;;;;4.43;1.80;;;14.30;93.40;;;;;;5077654;28;20024;-76
2021/11/13 10:36:59;;;;;;;4.35;1.60;;;14.40;93.20;;;;;;5076751;28;20056;-76
2021/11/13 10:39:36;;;;;;;10.93;1.95;;;14.50;93.20;;;;;;5077407;28;20013;-76
2021/11/13 10:42:11;;;;;;;4.97;2.03;;;14.60;93.10;;;;;;5077985;28;20043;-76
2021/11/13 10:44:48;;;;;;;9.48;1.92;;;14.70;92.70;;;;;;5078039;28;20021;-76
2021/11/13 10:47:16;;;;;;;5.32;1.60;;;14.80;92.20;;;;;;5077671;28;20108;-76
2021/11/13 10:49:43;;;;;;;5.18;1.60;;;14.90;92.30;;;;;;5077713;28;20028;-76
2021/11/13 10:52:10;;;;;;;5.88;1.70;;;15.10;92.10;;;;;;5077568;28;20511;-76
2021/11/13 10:54:40;;;;;;;8.80;1.90;;;15.50;92.50;;;;;;5077424;28;20206;-76
2021/11/13 10:57:07;;;;;;;8.38;2.72;;;15.90;92.40;;;;;;5077410;28;20013;-76
2021/11/13 10:59:40;;;;;;;7.47;2.80;;;16.20;91.50;;;;;;5077634;28;20035;-76
2021/11/13 11:02:12;;;;;;;6.68;2.47;;;16.30;90.30;;;;;;5077300;28;20050;-76
2021/11/13 11:04:41;;;;;;;6.72;2.72;;;16.20;90.40;;;;;;5077569;28;20025;-76
2021/11/13 11:07:12;;;;;;;8.30;2.72;;;16.30;90.10;;;;;;5077484;28;20040;-76
2021/11/13 11:09:56;;;;;;;10.13;2.50;;;16.10;89.90;;;;;;5077102;28;20108;-77
2021/11/13 11:12:26;;;;;;;8.00;2.00;;;16.00;88.90;;;;;;5065230;28;20028;-76
2021/11/13 11:14:53;;;;;;;9.50;2.25;;;16.00;89.20;;;;;;5077335;28;20021;-76
2021/11/13 11:17:27;;;;;;;6.05;2.63;;;16.20;90.10;;;;;;5077416;28;20016;-76
2021/11/13 11:20:01;;;;;;;9.23;2.60;;;16.60;89.80;;;;;;5077300;28;20406;-76
2021/11/13 11:22:29;;;;;;;7.63;2.85;;;16.70;89.30;;;;;;5077558;28;20016;-77
2021/11/13 11:25:01;;;;;;;7.18;2.60;;;16.60;89.00;;;;;;5076852;28;20032;-76
2021/11/13 11:27:39;;;;;;;8.90;2.73;;;16.50;89.30;;;;;;5077221;28;20020;-76
2021/11/13 11:30:07;;;;;;;8.18;4.55;;;16.40;89.60;;;;;;5077558;28;20610;-76
2021/11/13 11:32:45;;;;;;;6.40;3.08;;;16.20;89.90;;;;;;5076009;28;20024;-77
2021/11/13 11:35:20;;;;;;;6.45;3.47;;;16.10;89.70;;;;;;5077451;28;20052;-77
2021/11/13 11:37:55;;;;;;;6.35;2.70;;;15.90;89.80;;;;;;5076677;28;20053;-76
2021/11/13 11:40:33;;;;;;;7.55;3.35;;;15.80;89.60;;;;;;5076906;28;20028;-76
2021/11/13 11:43:00;;;;;;;9.90;3.25;;;15.70;90.10;;;;;;5080578;28;20024;-76
2021/11/13 11:45:32;;;;;;;7.38;2.90;;;15.80;90.40;;;;;;5081255;28;20029;-76
2021/11/13 11:47:59;;;;;;;7.93;2.97;;;15.90;90.30;;;;;;5081098;28;20032;-77
2021/11/13 11:50:28;;;;;;;9.82;3.17;;;15.90;88.50;;;;;;5080767;28;20027;-76
2021/11/13 11:52:56;;;;;;;8.73;2.35;;;15.90;88.50;;;;;;5080900;28;20126;-77
2021/11/13 11:55:23;;;;;;;7.03;2.45;;;15.80;88.30;;;;;;5080654;28;20021;-77
2021/11/13 11:57:58;;;;;;;7.13;2.25;;;15.70;88.70;;;;;;5081073;28;20060;-76
2021/11/13 12:00:28;;;;;;;6.70;2.40;;;15.50;88.60;;;;;;5080694;28;20028;-77
2021/11/13 12:02:57;;;;;;;8.57;2.75;;;15.50;88.70;;;;;;5080708;28;20078;-77
2021/11/13 12:05:31;;;;;;;8.63;2.75;;;15.40;89.00;;;;;;5080544;28;20086;-76
2021/11/13 12:08:14;;;;;;;9.18;2.53;;;15.30;88.70;;;;;;5080299;28;20391;-76
2021/11/13 12:10:40;;;;;;;12.98;3.00;;;15.30;88.90;;;;;;5080570;28;20020;-77
2021/11/13 12:13:07;;;;;;;8.02;2.72;;;15.20;89.20;;;;;;5080443;28;20028;-77
2021/11/13 12:15:43;;;;;;;8.07;2.95;;;15.10;89.40;;;;;;5080597;28;20027;-77
2021/11/13 12:18:29;;;;;;;8.90;4.20;;;15.10;89.60;;;;;;5080382;28;20372;-77
2021/11/13 12:21:01;;;;;;;12.25;5.03;;;15.00;89.80;;;;;;5080481;28;20055;-76
2021/11/13 12:23:34;;;;;;;8.38;3.20;;;14.90;89.90;;;;;;5080143;28;20378;-76
2021/11/13 12:26:10;;;;;;;8.70;3.92;;;14.80;90.00;;;;;;5080614;28;20024;-77
2021/11/13 12:28:57;;;;;;;9.50;3.90;;;14.80;90.10;;;;;;5078819;28;20120;-76
2021/11/13 12:31:41;;;;;;;7.43;2.83;;;14.80;90.30;;;;;;5079908;28;20016;-76
2021/11/13 12:34:16;;;;;;;7.68;2.80;;;14.70;90.30;;;;;;5074122;28;20043;-76
2021/11/13 12:37:04;;;;;;;6.45;2.60;;;14.70;90.40;;;;;;5078736;28;20052;-77
2021/11/13 12:39:56;;;;;;;7.57;3.55;;;14.80;90.70;;;;;;5079643;28;20024;-76
2021/11/13 12:42:25;;;;;;;11.20;4.65;;;14.80;90.80;;;;;;5080014;28;20032;-76
2021/11/13 12:44:59;;;;;;;13.60;6.13;;;14.90;90.80;;;;;;5078721;28;20025;-77
2021/11/13 12:47:32;;;;;;;12.50;5.28;;;14.90;90.90;;;;;;5079907;28;20035;-76